createdAt,value
2018-06-08T00:01:05.045Z,19.78
2018-06-08T00:05:59.602Z,19.68
2018-06-08T00:10:54.550Z,19.56
2018-06-08T00:15:49.115Z,19.67
2018-06-08T00:20:43.681Z,19.64
2018-06-08T00:25:38.230Z,19.52
2018-06-08T00:30:32.774Z,18.91
2018-06-08T00:35:27.375Z,19.12
2018-06-08T00:40:21.930Z,19.09
2018-06-08T00:45:16.493Z,18.76
2018-06-08T00:50:11.061Z,18.96
2018-06-08T00:55:05.882Z,19.05
2018-06-08T01:00:00.411Z,18.95
2018-06-08T01:04:54.996Z,18.96
2018-06-08T01:09:49.530Z,18.93
2018-06-08T01:14:44.109Z,18.86
2018-06-08T01:19:38.831Z,18.85
2018-06-08T01:24:33.995Z,18.47
2018-06-08T01:29:28.550Z,18.61
2018-06-08T01:34:23.132Z,18.75
2018-06-08T01:39:17.697Z,18.46
2018-06-08T01:44:12.258Z,18.42
2018-06-08T01:49:06.882Z,18.16
2018-06-08T01:54:01.404Z,18.21
2018-06-08T01:58:56.007Z,18.16
2018-06-08T02:03:50.557Z,18.13
2018-06-08T02:08:45.070Z,18.12
2018-06-08T02:13:39.602Z,18.29
2018-06-08T02:18:34.123Z,18.15
2018-06-08T02:23:28.709Z,18.06
2018-06-08T02:28:23.272Z,18.14
2018-06-08T02:33:17.814Z,17.99
2018-06-08T02:38:12.397Z,18.12
2018-06-08T02:43:06.941Z,18.00
2018-06-08T02:48:01.504Z,18.03
2018-06-08T02:52:56.031Z,17.79
2018-06-08T02:57:50.586Z,17.71
2018-06-08T03:02:45.120Z,17.95
2018-06-08T03:07:39.661Z,17.98
2018-06-08T03:12:34.210Z,17.69
2018-06-08T03:17:28.769Z,17.91
2018-06-08T03:22:23.304Z,18.15
2018-06-08T03:27:17.935Z,17.97
2018-06-08T03:32:12.487Z,17.96
2018-06-08T03:37:07.047Z,17.66
2018-06-08T03:42:01.570Z,17.86
2018-06-08T03:46:56.119Z,18.07
2018-06-08T03:51:50.661Z,18.08
2018-06-08T03:56:48.526Z,18.29
2018-06-08T04:01:43.077Z,18.46
2018-06-08T04:06:37.683Z,18.70
2018-06-08T04:11:32.329Z,18.91
2018-06-08T04:16:26.889Z,19.17
2018-06-08T04:21:21.475Z,19.26
2018-06-08T04:26:16.059Z,19.33
2018-06-08T04:31:10.623Z,19.42
2018-06-08T04:36:06.524Z,19.56
2018-06-08T04:41:01.161Z,19.31
2018-06-08T04:45:55.703Z,19.59
2018-06-08T04:50:50.307Z,20.31
2018-06-08T04:55:44.537Z,20.86
2018-06-08T05:00:39.083Z,21.31
2018-06-08T05:05:33.619Z,21.47
2018-06-08T05:10:28.167Z,21.55
2018-06-08T05:15:22.703Z,21.24
2018-06-08T05:20:17.279Z,20.68
2018-06-08T05:25:11.822Z,20.44
2018-06-08T05:30:13.519Z,20.45
2018-06-08T05:35:08.107Z,20.54
2018-06-08T05:40:02.678Z,20.65
2018-06-08T05:44:56.916Z,20.56
2018-06-08T05:49:51.459Z,20.34
2018-06-08T05:54:46.012Z,20.22
2018-06-08T05:59:40.577Z,19.95
2018-06-08T06:04:35.103Z,20.12
2018-06-08T06:09:29.665Z,20.37
2018-06-08T06:14:24.216Z,20.54
2018-06-08T06:19:18.738Z,20.77
2018-06-08T06:24:13.286Z,21.35
2018-06-08T06:34:01.343Z,22.57
2018-06-08T06:38:55.942Z,22.62
2018-06-08T06:43:50.511Z,22.40
2018-06-08T06:48:45.231Z,22.46
2018-06-08T06:53:39.828Z,23.02
2018-06-08T06:58:34.431Z,23.14
2018-06-08T07:03:29.028Z,22.68
2018-06-08T07:08:23.559Z,22.45
2018-06-08T07:13:18.074Z,22.49
2018-06-08T07:18:12.641Z,23.16
2018-06-08T07:23:07.174Z,22.55
2018-06-08T07:28:01.759Z,23.64
2018-06-08T07:32:56.286Z,23.89
2018-06-08T07:37:50.864Z,24.30
2018-06-08T07:42:45.416Z,24.59
2018-06-08T07:47:40.008Z,24.28
2018-06-08T07:52:34.593Z,24.20
2018-06-08T07:57:29.165Z,24.24
2018-06-08T08:02:23.710Z,24.12
2018-06-08T08:07:18.475Z,24.40
2018-06-08T08:12:12.986Z,24.03
2018-06-08T08:17:07.566Z,24.18
2018-06-08T08:22:02.144Z,24.16
2018-06-08T08:26:56.633Z,24.27
2018-06-08T08:31:51.135Z,24.23
2018-06-08T08:36:45.716Z,25.08
2018-06-08T08:41:40.284Z,25.50
2018-06-08T08:46:34.870Z,26.67
2018-06-08T08:51:29.484Z,25.97
2018-06-08T08:56:23.955Z,25.97
2018-06-08T09:01:18.490Z,25.35
2018-06-08T09:06:13.023Z,25.44
2018-06-08T09:11:07.609Z,25.90
2018-06-08T09:16:02.177Z,26.12
2018-06-08T09:20:56.662Z,26.64
2018-06-08T09:25:51.181Z,26.85
2018-06-08T09:30:45.676Z,26.88
2018-06-08T09:35:40.180Z,26.81
2018-06-08T09:40:34.697Z,27.73
2018-06-08T09:45:29.225Z,28.24
2018-06-08T09:50:24.826Z,28.28
2018-06-08T09:55:19.385Z,27.26
2018-06-08T10:00:18.003Z,27.84
2018-06-08T10:05:12.592Z,28.40
2018-06-08T10:10:07.105Z,28.67
2018-06-08T10:15:01.611Z,29.85
2018-06-08T10:19:56.117Z,27.76
2018-06-08T10:24:50.651Z,27.13
2018-06-08T10:29:45.202Z,27.67
2018-06-08T10:34:39.710Z,28.61
2018-06-08T10:39:34.220Z,28.96
2018-06-08T10:44:28.754Z,29.28
2018-06-08T10:49:23.314Z,28.84
2018-06-08T10:54:17.861Z,28.76
2018-06-08T10:59:12.364Z,29.33
2018-06-08T11:04:06.985Z,28.81
2018-06-08T11:09:01.523Z,29.09
2018-06-08T11:13:56.085Z,29.25
2018-06-08T11:18:50.600Z,29.86
2018-06-08T11:23:45.145Z,29.40
2018-06-08T11:28:39.658Z,29.36
2018-06-08T11:33:34.197Z,29.58
2018-06-08T11:38:28.722Z,29.47
2018-06-08T11:43:23.214Z,29.66
2018-06-08T11:48:17.762Z,29.94
2018-06-08T11:53:12.298Z,30.02
2018-06-08T11:58:06.834Z,29.48
2018-06-08T12:03:01.367Z,27.36
2018-06-08T12:07:55.880Z,27.46
2018-06-08T12:12:50.388Z,28.39
2018-06-08T12:17:44.950Z,28.42
2018-06-08T12:22:39.561Z,28.71
2018-06-08T12:27:34.086Z,28.77
2018-06-08T12:32:28.643Z,29.09
2018-06-08T12:37:23.183Z,29.66
2018-06-08T12:42:17.727Z,28.40
2018-06-08T12:47:12.330Z,28.12
2018-06-08T12:52:06.914Z,28.11
2018-06-08T12:57:01.487Z,28.41
2018-06-08T13:01:56.064Z,27.91
2018-06-08T13:06:50.671Z,28.29
2018-06-08T13:11:45.243Z,28.68
2018-06-08T13:16:39.819Z,28.76
2018-06-08T13:21:34.451Z,28.44
2018-06-08T13:26:29.026Z,28.32
2018-06-08T13:31:23.574Z,28.30
2018-06-08T13:36:18.192Z,28.43
2018-06-08T13:41:12.764Z,28.67
2018-06-08T13:46:23.881Z,28.74
2018-06-08T13:51:18.542Z,28.60
2018-06-08T13:56:13.127Z,28.35
2018-06-08T14:01:07.734Z,28.14
2018-06-08T14:06:02.279Z,28.37
2018-06-08T14:10:56.839Z,28.17
2018-06-08T14:15:51.454Z,28.24
2018-06-08T14:20:46.001Z,29.26
2018-06-08T14:25:40.595Z,30.10
2018-06-08T14:30:35.202Z,30.30
2018-06-08T14:35:29.763Z,30.63
2018-06-08T14:40:24.335Z,29.50
2018-06-08T14:45:19.009Z,27.97
2018-06-08T14:50:13.615Z,25.52
2018-06-08T14:55:08.268Z,24.67
2018-06-08T15:00:02.908Z,24.70
2018-06-08T15:04:57.567Z,24.12
2018-06-08T15:09:52.286Z,23.79
2018-06-08T15:14:46.854Z,23.77
2018-06-08T15:19:41.585Z,23.61
2018-06-08T15:24:38.475Z,23.22
2018-06-08T15:29:33.030Z,23.06
2018-06-08T15:34:27.696Z,22.64
2018-06-08T15:39:22.524Z,22.08
2018-06-08T15:44:17.150Z,21.95
2018-06-08T15:49:11.787Z,21.76
2018-06-08T15:54:06.389Z,21.79
2018-06-08T15:59:01.002Z,21.93
2018-06-08T16:03:55.684Z,21.37
2018-06-08T16:08:50.420Z,21.19
2018-06-08T16:13:46.059Z,21.23
2018-06-08T16:18:40.850Z,21.08
2018-06-08T16:23:35.485Z,21.03
2018-06-08T16:28:30.173Z,21.10
2018-06-08T16:33:24.827Z,20.95
2018-06-08T16:38:19.515Z,20.79
2018-06-08T16:43:14.266Z,20.88
2018-06-08T16:48:09.058Z,20.87
2018-06-08T16:53:04.015Z,20.68
2018-06-08T16:57:58.854Z,20.67
2018-06-08T17:02:53.738Z,20.72
2018-06-08T17:07:48.632Z,20.61
2018-06-08T17:12:43.648Z,20.55
2018-06-08T17:17:38.689Z,20.47
2018-06-08T17:22:33.697Z,20.46
2018-06-08T17:27:31.869Z,20.39
2018-06-08T17:32:27.102Z,20.38
2018-06-08T17:37:22.680Z,20.51
2018-06-08T17:42:46.132Z,20.30
2018-06-08T17:48:04.794Z,20.43
2018-06-08T17:52:59.965Z,20.26
2018-06-08T17:58:01.707Z,20.29
2018-06-08T18:02:56.938Z,20.36
2018-06-08T18:07:52.098Z,20.28
2018-06-08T18:12:47.093Z,20.08
2018-06-08T18:18:06.298Z,19.79
2018-06-08T18:23:01.551Z,19.95
2018-06-08T18:27:57.033Z,19.99
2018-06-08T18:33:05.504Z,19.93
2018-06-08T18:38:05.169Z,19.96
2018-06-08T18:43:16.809Z,20.04
2018-06-08T18:53:36.296Z,19.88
2018-06-08T18:58:31.535Z,19.94
2018-06-08T19:03:32.616Z,19.95
2018-06-08T19:08:42.463Z,20.00
2018-06-08T19:13:41.977Z,20.02
2018-06-08T19:18:37.104Z,20.00
2018-06-08T19:23:32.272Z,20.15
2018-06-08T19:28:27.352Z,20.22
2018-06-08T19:33:22.659Z,20.25
2018-06-08T19:38:17.875Z,20.17
2018-06-08T19:43:12.995Z,20.07
2018-06-08T19:48:09.483Z,20.09
2018-06-08T19:53:04.649Z,20.08
2018-06-08T19:57:59.885Z,20.04
2018-06-08T20:02:54.962Z,20.05
2018-06-08T20:07:50.136Z,20.07
2018-06-08T20:12:45.477Z,20.10
2018-06-08T20:17:40.648Z,20.07
2018-06-08T20:22:35.707Z,20.06
2018-06-08T20:27:32.064Z,19.95
2018-06-08T20:32:26.969Z,20.05
2018-06-08T20:37:21.926Z,20.10
2018-06-08T20:42:17.087Z,20.11
2018-06-08T20:47:11.872Z,20.13
2018-06-08T20:52:06.936Z,19.94
2018-06-08T20:57:19.244Z,19.84
2018-06-08T21:02:14.308Z,19.82
2018-06-08T21:07:09.104Z,19.67
2018-06-08T21:12:04.140Z,19.69
2018-06-08T21:16:59.076Z,19.59
2018-06-08T21:21:54.028Z,19.55
2018-06-08T21:26:49.031Z,19.55
2018-06-08T21:31:44.150Z,19.66
2018-06-08T21:36:54.562Z,19.76
2018-06-08T21:41:49.631Z,19.74
2018-06-08T21:46:44.549Z,19.61
2018-06-08T21:51:39.542Z,19.63
2018-06-08T21:56:34.466Z,19.57
2018-06-08T22:01:29.575Z,19.67
2018-06-08T22:11:49.468Z,19.54
2018-06-08T22:16:44.589Z,19.43
2018-06-08T22:21:39.502Z,19.17
2018-06-08T22:26:34.503Z,19.25
2018-06-08T22:31:29.608Z,19.12
2018-06-08T22:36:25.740Z,19.16
2018-06-08T22:41:24.516Z,19.14
2018-06-08T22:51:38.848Z,19.03
2018-06-08T22:56:33.985Z,18.97
2018-06-08T23:01:28.914Z,18.98
2018-06-08T23:06:23.804Z,18.91
2018-06-08T23:11:18.829Z,18.83
2018-06-08T23:16:13.764Z,18.76
2018-06-08T23:21:08.720Z,18.85
2018-06-08T23:26:03.812Z,18.56
2018-06-08T23:30:58.835Z,18.56
2018-06-08T23:35:53.859Z,18.60
2018-06-08T23:40:48.869Z,18.54
2018-06-08T23:45:43.842Z,18.40
2018-06-08T23:50:38.916Z,18.45
2018-06-08T23:55:33.831Z,18.38
